createdAt,value
2018-12-17T00:00:07.807Z,2.90
2018-12-17T00:02:41.972Z,2.90
2018-12-17T00:05:16.351Z,2.90
2018-12-17T00:07:50.752Z,3.00
2018-12-17T00:10:25.062Z,2.90
2018-12-17T00:12:59.416Z,3.00
2018-12-17T00:15:33.698Z,3.00
2018-12-17T00:18:08.006Z,3.00
2018-12-17T00:20:42.305Z,3.00
2018-12-17T00:23:16.709Z,2.90
2018-12-17T00:25:51.169Z,3.00
2018-12-17T00:28:25.390Z,2.90
2018-12-17T00:30:59.748Z,2.90
2018-12-17T00:33:34.197Z,2.90
2018-12-17T00:36:08.372Z,2.90
2018-12-17T00:38:42.775Z,2.90
2018-12-17T00:41:17.204Z,2.90
2018-12-17T00:43:51.508Z,2.90
2018-12-17T00:46:25.756Z,3.00
2018-12-17T00:49:00.112Z,3.00
2018-12-17T00:51:34.465Z,3.00
2018-12-17T00:54:08.856Z,3.00
2018-12-17T00:56:43.185Z,3.00
2018-12-17T00:59:17.504Z,3.00
2018-12-17T01:01:51.940Z,3.00
2018-12-17T01:04:26.261Z,3.00
2018-12-17T01:07:00.585Z,3.00
2018-12-17T01:09:34.873Z,3.00
2018-12-17T01:12:09.292Z,3.10
2018-12-17T01:14:43.688Z,3.10
2018-12-17T01:17:17.949Z,3.10
2018-12-17T01:19:52.450Z,3.10
2018-12-17T01:22:26.567Z,3.10
2018-12-17T01:25:00.945Z,3.00
2018-12-17T01:27:35.167Z,3.00
2018-12-17T01:30:09.892Z,3.00
2018-12-17T01:32:44.317Z,3.00
2018-12-17T01:35:18.510Z,3.00
2018-12-17T01:37:52.992Z,3.00
2018-12-17T01:40:27.194Z,3.00
2018-12-17T01:43:02.358Z,3.00
2018-12-17T01:45:36.692Z,3.00
2018-12-17T01:48:11.002Z,3.10
2018-12-17T01:50:45.318Z,3.10
2018-12-17T01:53:19.637Z,3.10
2018-12-17T01:55:54.049Z,3.10
2018-12-17T01:58:29.293Z,3.10
2018-12-17T02:01:04.071Z,3.10
2018-12-17T02:03:38.273Z,3.10
2018-12-17T02:06:12.656Z,3.10
2018-12-17T02:08:47.064Z,3.10
2018-12-17T02:11:21.445Z,3.10
2018-12-17T02:13:55.952Z,3.10
2018-12-17T02:16:30.124Z,3.10
2018-12-17T02:19:04.582Z,3.10
2018-12-17T02:21:38.893Z,3.10
2018-12-17T02:24:13.181Z,3.10
2018-12-17T02:26:47.496Z,3.10
2018-12-17T02:29:21.799Z,3.20
2018-12-17T02:31:56.178Z,3.10
2018-12-17T02:34:30.505Z,3.10
2018-12-17T02:37:04.960Z,3.10
2018-12-17T02:39:39.192Z,3.10
2018-12-17T02:42:13.494Z,3.10
2018-12-17T02:44:47.648Z,3.10
2018-12-17T02:47:22.033Z,3.10
2018-12-17T02:49:56.345Z,3.10
2018-12-17T02:52:30.663Z,3.10
2018-12-17T02:55:05.834Z,3.20
2018-12-17T02:57:40.242Z,3.20
2018-12-17T03:00:14.781Z,3.20
2018-12-17T03:02:49.186Z,3.20
2018-12-17T03:05:23.549Z,3.20
2018-12-17T03:07:57.954Z,3.20
2018-12-17T03:10:32.229Z,3.20
2018-12-17T03:13:06.673Z,3.20
2018-12-17T03:15:40.993Z,3.20
2018-12-17T03:18:15.319Z,3.20
2018-12-17T03:20:49.735Z,3.20
2018-12-17T03:23:24.020Z,3.20
2018-12-17T03:25:58.381Z,3.20
2018-12-17T03:28:32.756Z,3.20
2018-12-17T03:31:07.058Z,3.20
2018-12-17T03:33:41.346Z,3.20
2018-12-17T03:36:15.722Z,3.20
2018-12-17T03:38:50.046Z,3.20
2018-12-17T03:41:24.476Z,3.20
2018-12-17T03:43:58.800Z,3.20
2018-12-17T03:46:33.153Z,3.20
2018-12-17T03:49:07.365Z,3.20
2018-12-17T03:51:41.653Z,3.20
2018-12-17T03:54:16.125Z,3.30
2018-12-17T03:56:50.492Z,3.20
2018-12-17T03:59:24.696Z,3.30
2018-12-17T04:01:59.163Z,3.20
2018-12-17T04:04:33.473Z,3.30
2018-12-17T04:07:07.750Z,3.20
2018-12-17T04:09:42.073Z,3.30
2018-12-17T04:12:16.455Z,3.30
2018-12-17T04:14:50.721Z,3.30
2018-12-17T04:17:25.033Z,3.30
2018-12-17T04:19:59.214Z,3.30
2018-12-17T04:22:33.691Z,3.20
2018-12-17T04:25:08.147Z,3.20
2018-12-17T04:27:42.368Z,3.30
2018-12-17T04:30:16.777Z,3.20
2018-12-17T04:32:51.029Z,3.30
2018-12-17T04:35:25.393Z,3.30
2018-12-17T04:37:59.639Z,3.30
2018-12-17T04:40:33.992Z,3.30
2018-12-17T04:43:08.272Z,3.30
2018-12-17T04:45:42.624Z,3.30
2018-12-17T04:48:16.899Z,3.30
2018-12-17T04:50:51.230Z,3.30
2018-12-17T04:53:25.640Z,3.30
2018-12-17T04:55:59.932Z,3.30
2018-12-17T04:58:34.368Z,3.30
2018-12-17T05:01:08.540Z,3.30
2018-12-17T05:03:42.849Z,3.30
2018-12-17T05:06:17.163Z,3.30
2018-12-17T05:08:51.825Z,3.30
2018-12-17T05:11:26.152Z,3.30
2018-12-17T05:14:00.632Z,3.30
2018-12-17T05:16:34.997Z,3.30
2018-12-17T05:19:09.557Z,3.30
2018-12-17T05:21:43.968Z,3.40
2018-12-17T05:24:18.102Z,3.40
2018-12-17T05:26:52.292Z,3.40
2018-12-17T05:29:26.480Z,3.40
2018-12-17T05:32:00.893Z,3.40
2018-12-17T05:34:35.232Z,3.40
2018-12-17T05:37:09.668Z,3.30
2018-12-17T05:39:43.984Z,3.30
2018-12-17T05:42:18.596Z,3.40
2018-12-17T05:44:52.928Z,3.30
2018-12-17T05:47:27.345Z,3.30
2018-12-17T05:50:01.672Z,3.30
2018-12-17T05:52:36.245Z,3.40
2018-12-17T05:55:10.440Z,3.30
2018-12-17T05:57:44.813Z,3.30
2018-12-17T06:00:19.102Z,3.30
2018-12-17T06:02:53.404Z,3.30
2018-12-17T06:05:27.822Z,3.40
2018-12-17T06:08:02.170Z,3.40
2018-12-17T06:10:36.668Z,3.40
2018-12-17T06:13:10.936Z,3.40
2018-12-17T06:15:45.380Z,3.40
2018-12-17T06:18:19.787Z,3.40
2018-12-17T06:20:54.501Z,3.40
2018-12-17T06:23:28.685Z,3.40
2018-12-17T06:26:03.248Z,3.40
2018-12-17T06:28:37.453Z,3.40
2018-12-17T06:31:11.664Z,3.40
2018-12-17T06:33:46.112Z,3.40
2018-12-17T06:36:20.483Z,3.40
2018-12-17T06:38:54.795Z,3.40
2018-12-17T06:41:29.267Z,3.40
2018-12-17T06:44:03.760Z,3.40
2018-12-17T06:46:38.038Z,3.50
2018-12-17T06:49:12.469Z,3.50
2018-12-17T06:51:47.421Z,3.50
2018-12-17T06:54:22.463Z,3.50
2018-12-17T06:56:56.661Z,3.50
2018-12-17T06:59:31.432Z,3.60
2018-12-17T07:02:06.800Z,3.60
2018-12-17T07:04:40.997Z,3.60
2018-12-17T07:07:15.196Z,3.60
2018-12-17T07:09:49.537Z,3.60
2018-12-17T07:12:23.802Z,3.60
2018-12-17T07:14:58.073Z,3.60
2018-12-17T07:17:32.361Z,3.60
2018-12-17T07:20:07.305Z,3.60
2018-12-17T07:22:41.441Z,3.60
2018-12-17T07:25:15.956Z,3.70
2018-12-17T07:27:50.378Z,3.70
2018-12-17T07:30:24.732Z,3.60
2018-12-17T07:32:58.966Z,3.60
2018-12-17T07:35:33.821Z,3.60
2018-12-17T07:38:08.043Z,3.70
2018-12-17T07:40:42.225Z,3.70
2018-12-17T07:43:16.553Z,3.60
2018-12-17T07:45:51.050Z,3.70
2018-12-17T07:48:25.332Z,3.70
2018-12-17T07:50:59.694Z,3.70
2018-12-17T07:53:34.045Z,3.70
2018-12-17T07:56:08.308Z,3.70
2018-12-17T07:58:42.716Z,3.70
2018-12-17T08:01:17.029Z,3.70
2018-12-17T08:03:51.331Z,3.80
2018-12-17T08:06:25.484Z,3.80
2018-12-17T08:08:59.914Z,3.80
2018-12-17T08:11:34.237Z,3.80
2018-12-17T08:14:08.960Z,3.80
2018-12-17T08:16:43.152Z,3.80
2018-12-17T08:19:17.532Z,3.80
2018-12-17T08:21:51.921Z,3.80
2018-12-17T08:24:26.250Z,3.90
2018-12-17T08:27:00.590Z,3.90
2018-12-17T08:29:34.976Z,3.90
2018-12-17T08:32:09.268Z,4.00
2018-12-17T08:34:43.701Z,4.00
2018-12-17T08:37:17.988Z,4.00
2018-12-17T08:39:52.200Z,4.00
2018-12-17T08:42:26.416Z,4.10
2018-12-17T08:45:00.972Z,4.10
2018-12-17T08:47:35.260Z,4.20
2018-12-17T08:50:09.920Z,4.20
2018-12-17T08:52:44.177Z,4.20
2018-12-17T08:55:18.432Z,4.20
2018-12-17T08:57:52.685Z,4.20
2018-12-17T09:00:27.066Z,4.20
2018-12-17T09:03:01.393Z,4.30
2018-12-17T09:05:35.861Z,4.30
2018-12-17T09:08:10.138Z,4.30
2018-12-17T09:10:44.478Z,4.30
2018-12-17T09:13:19.035Z,4.40
2018-12-17T09:15:53.372Z,4.40
2018-12-17T09:18:27.678Z,4.40
2018-12-17T09:21:01.948Z,4.50
2018-12-17T09:23:36.477Z,4.60
2018-12-17T09:26:10.650Z,4.60
2018-12-17T09:28:44.992Z,4.60
2018-12-17T09:31:19.329Z,4.60
2018-12-17T09:33:53.883Z,4.60
2018-12-17T09:36:28.347Z,4.70
2018-12-17T09:39:02.754Z,4.70
2018-12-17T09:41:37.148Z,4.70
2018-12-17T09:44:11.584Z,4.70
2018-12-17T09:46:45.929Z,4.70
2018-12-17T09:49:20.370Z,4.70
2018-12-17T09:51:54.622Z,4.70
2018-12-17T09:54:29.012Z,4.70
2018-12-17T09:57:03.623Z,4.70
2018-12-17T09:59:37.834Z,4.70
2018-12-17T10:02:12.508Z,4.70
2018-12-17T10:04:46.807Z,4.70
2018-12-17T10:07:21.137Z,4.70
2018-12-17T10:09:55.512Z,4.70
2018-12-17T10:12:29.865Z,4.70
2018-12-17T10:15:04.908Z,4.70
2018-12-17T10:17:39.204Z,4.80
2018-12-17T10:20:13.652Z,4.80
2018-12-17T10:22:47.824Z,4.80
2018-12-17T10:25:22.157Z,4.90
2018-12-17T10:27:56.457Z,4.90
2018-12-17T10:30:32.646Z,5.00
2018-12-17T10:33:07.185Z,5.00
2018-12-17T10:35:41.489Z,5.00
2018-12-17T10:38:15.788Z,5.00
2018-12-17T10:40:50.173Z,5.10
2018-12-17T10:43:24.520Z,5.10
2018-12-17T10:45:58.972Z,5.10
2018-12-17T10:48:33.381Z,5.10
2018-12-17T10:51:07.634Z,5.20
2018-12-17T10:53:41.997Z,5.20
2018-12-17T10:56:16.416Z,5.30
2018-12-17T10:58:50.901Z,5.30
2018-12-17T11:02:31.104Z,5.30
2018-12-17T11:05:13.445Z,5.40
2018-12-17T11:07:47.643Z,5.40
2018-12-17T11:10:21.934Z,5.40
2018-12-17T11:12:56.188Z,5.40
2018-12-17T11:15:30.404Z,5.40
2018-12-17T11:18:04.897Z,5.40
2018-12-17T11:20:39.069Z,5.40
2018-12-17T11:23:13.876Z,5.40
2018-12-17T11:25:48.174Z,5.50
2018-12-17T11:28:22.604Z,5.50
2018-12-17T11:30:57.125Z,5.40
2018-12-17T11:33:31.449Z,5.40
2018-12-17T11:36:05.705Z,5.50
2018-12-17T11:38:39.985Z,5.50
2018-12-17T11:41:14.496Z,5.40
2018-12-17T11:43:48.753Z,5.50
2018-12-17T11:46:23.039Z,5.40
2018-12-17T11:48:57.292Z,5.50
2018-12-17T11:51:31.781Z,5.50
2018-12-17T11:54:06.051Z,5.50
2018-12-17T11:56:50.316Z,5.50
2018-12-17T11:59:24.660Z,5.50
2018-12-17T12:01:58.985Z,5.50
2018-12-17T12:04:33.349Z,5.50
2018-12-17T12:07:07.648Z,5.60
2018-12-17T12:09:41.833Z,5.60
2018-12-17T12:12:16.192Z,5.60
2018-12-17T12:14:50.416Z,5.60
2018-12-17T12:17:24.715Z,5.60
2018-12-17T12:19:58.992Z,5.70
2018-12-17T12:22:33.216Z,5.70
2018-12-17T12:25:07.816Z,5.70
2018-12-17T12:27:42.153Z,5.70
2018-12-17T12:30:16.567Z,5.70
2018-12-17T12:32:50.780Z,5.70
2018-12-17T12:35:25.201Z,5.60
2018-12-17T12:37:59.556Z,5.70
2018-12-17T12:40:33.846Z,5.70
2018-12-17T12:43:08.239Z,5.70
2018-12-17T12:45:42.527Z,5.70
2018-12-17T12:48:16.812Z,5.70
2018-12-17T12:50:51.073Z,5.60
2018-12-17T12:53:25.427Z,5.60
2018-12-17T12:55:59.815Z,5.60
2018-12-17T12:58:34.201Z,5.60
2018-12-17T13:01:08.469Z,5.60
2018-12-17T13:03:42.980Z,5.60
2018-12-17T13:06:17.340Z,5.60
2018-12-17T13:08:51.530Z,5.60
2018-12-17T13:11:25.884Z,5.60
2018-12-17T13:14:00.176Z,5.60
2018-12-17T13:16:34.464Z,5.70
2018-12-17T13:19:08.844Z,5.60
2018-12-17T13:21:43.105Z,5.70
2018-12-17T13:24:17.550Z,5.70
2018-12-17T13:26:51.834Z,5.60
2018-12-17T13:29:26.184Z,5.60
2018-12-17T13:32:00.400Z,5.70
2018-12-17T13:34:34.660Z,5.60
2018-12-17T13:37:09.033Z,5.60
2018-12-17T13:39:43.295Z,5.70
2018-12-17T13:42:17.667Z,5.70
2018-12-17T13:44:52.419Z,5.90
2018-12-17T13:47:26.720Z,6.20
2018-12-17T13:50:05.162Z,6.30
2018-12-17T13:52:45.894Z,6.20
2018-12-17T13:55:20.209Z,6.10
2018-12-17T13:57:54.479Z,6.10
2018-12-17T14:00:28.816Z,6.10
2018-12-17T14:03:03.292Z,6.10
2018-12-17T14:05:37.650Z,6.10
2018-12-17T14:08:12.041Z,6.10
2018-12-17T14:10:53.524Z,6.10
2018-12-17T14:13:29.920Z,6.10
2018-12-17T14:16:09.885Z,6.10
2018-12-17T14:18:50.512Z,6.10
2018-12-17T14:21:30.370Z,6.10
2018-12-17T14:24:04.664Z,6.10
2018-12-17T14:26:39.012Z,6.10
2018-12-17T14:29:13.285Z,6.10
2018-12-17T14:31:47.556Z,6.10
2018-12-17T14:34:21.981Z,6.10
2018-12-17T14:36:56.166Z,6.10
2018-12-17T14:39:30.505Z,6.10
2018-12-17T14:42:04.892Z,6.10
2018-12-17T14:44:39.322Z,6.10
2018-12-17T14:47:13.669Z,6.10
2018-12-17T14:49:47.823Z,6.10
2018-12-17T14:52:22.123Z,6.10
2018-12-17T14:54:56.296Z,6.10
2018-12-17T14:57:30.772Z,6.10
2018-12-17T15:00:07.533Z,6.10
2018-12-17T15:02:41.774Z,6.10
2018-12-17T15:05:16.029Z,6.10
2018-12-17T15:07:50.389Z,6.10
2018-12-17T15:10:24.807Z,6.10
2018-12-17T15:12:59.507Z,6.10
2018-12-17T15:15:33.796Z,6.10
2018-12-17T15:18:08.278Z,6.10
2018-12-17T15:20:42.732Z,6.20
2018-12-17T15:23:16.891Z,6.20
2018-12-17T15:25:51.260Z,6.20
2018-12-17T15:28:25.582Z,6.20
2018-12-17T15:31:00.001Z,6.20
2018-12-17T15:33:34.580Z,6.30
2018-12-17T15:36:08.948Z,6.30
2018-12-17T15:38:43.505Z,6.30
2018-12-17T15:41:17.996Z,6.30
2018-12-17T15:43:52.400Z,6.30
2018-12-17T15:46:26.804Z,6.30
2018-12-17T15:49:01.276Z,6.30
2018-12-17T15:51:36.389Z,6.30
2018-12-17T15:54:10.749Z,6.30
2018-12-17T15:56:45.310Z,6.30
2018-12-17T15:59:19.900Z,6.30
2018-12-17T16:01:54.357Z,6.30
2018-12-17T16:04:28.820Z,6.40
2018-12-17T16:07:03.146Z,6.30
2018-12-17T16:09:37.470Z,6.40
2018-12-17T16:12:11.773Z,6.40
2018-12-17T16:14:46.173Z,6.40
2018-12-17T16:17:20.521Z,6.40
2018-12-17T16:19:55.008Z,6.40
2018-12-17T16:22:29.239Z,6.40
2018-12-17T16:25:04.004Z,6.40
2018-12-17T16:27:38.426Z,6.40
2018-12-17T16:30:12.945Z,6.50
2018-12-17T16:32:47.158Z,6.40
2018-12-17T16:35:21.541Z,6.50
2018-12-17T16:37:55.769Z,6.50
2018-12-17T16:40:30.033Z,6.50
2018-12-17T16:43:04.502Z,6.50
2018-12-17T16:45:39.184Z,6.50
2018-12-17T16:48:13.448Z,6.50
2018-12-17T16:50:47.804Z,6.50
2018-12-17T16:53:22.060Z,6.50
2018-12-17T16:55:56.359Z,6.50
2018-12-17T16:58:30.696Z,6.50
2018-12-17T17:01:05.193Z,6.50
2018-12-17T17:03:39.655Z,6.60
2018-12-17T17:06:14.039Z,6.60
2018-12-17T17:08:48.328Z,6.60
2018-12-17T17:11:22.566Z,6.60
2018-12-17T17:13:56.769Z,6.60
2018-12-17T17:16:31.362Z,6.60
2018-12-17T17:19:05.773Z,6.60
2018-12-17T17:21:39.932Z,6.60
2018-12-17T17:24:14.304Z,6.70
2018-12-17T17:26:48.584Z,6.60
2018-12-17T17:29:22.917Z,6.60
2018-12-17T17:31:57.264Z,6.70
2018-12-17T17:34:31.528Z,6.70
2018-12-17T17:37:05.941Z,6.70
2018-12-17T17:39:40.228Z,6.70
2018-12-17T17:42:14.596Z,6.70
2018-12-17T17:44:48.802Z,6.70
2018-12-17T17:47:22.996Z,6.70
2018-12-17T17:49:57.319Z,6.70
2018-12-17T17:52:31.496Z,6.70
2018-12-17T17:55:06.207Z,6.70
2018-12-17T17:57:40.513Z,6.70
2018-12-17T18:00:14.939Z,6.70
2018-12-17T18:02:49.166Z,6.70
2018-12-17T18:05:23.704Z,6.70
2018-12-17T18:07:57.938Z,6.70
2018-12-17T18:10:32.369Z,6.70
2018-12-17T18:13:06.920Z,6.70
2018-12-17T18:15:41.942Z,6.70
2018-12-17T18:18:16.514Z,6.70
2018-12-17T18:20:50.773Z,6.70
2018-12-17T18:23:25.017Z,6.70
2018-12-17T18:25:59.361Z,6.70
2018-12-17T18:28:33.675Z,6.70
2018-12-17T18:31:08.243Z,6.70
2018-12-17T18:33:42.445Z,6.80
2018-12-17T18:36:16.838Z,6.80
2018-12-17T18:38:51.257Z,6.70
2018-12-17T18:41:25.621Z,6.70
2018-12-17T18:44:00.036Z,6.70
2018-12-17T18:46:34.410Z,6.80
2018-12-17T18:49:08.769Z,6.80
2018-12-17T18:51:43.170Z,6.80
2018-12-17T18:54:17.605Z,6.80
2018-12-17T18:56:52.283Z,6.80
2018-12-17T18:59:26.631Z,6.80
2018-12-17T19:02:00.924Z,6.80
2018-12-17T19:04:35.261Z,6.80
2018-12-17T19:07:09.609Z,6.80
2018-12-17T19:09:44.057Z,6.80
2018-12-17T19:12:18.505Z,6.80
2018-12-17T19:14:52.916Z,6.80
2018-12-17T19:17:27.152Z,6.80
2018-12-17T19:20:01.620Z,6.70
2018-12-17T19:22:36.134Z,6.80
2018-12-17T19:25:10.568Z,6.80
2018-12-17T19:27:44.851Z,6.80
2018-12-17T19:30:19.068Z,6.80
2018-12-17T19:32:53.368Z,6.70
2018-12-17T19:35:27.640Z,6.70
2018-12-17T19:38:02.000Z,6.80
2018-12-17T19:40:36.729Z,6.80
2018-12-17T19:43:11.172Z,6.70
2018-12-17T19:45:45.394Z,6.80
2018-12-17T19:48:19.756Z,6.70
2018-12-17T19:50:54.152Z,6.70
2018-12-17T19:53:28.386Z,6.70
2018-12-17T19:56:02.810Z,6.70
2018-12-17T19:58:37.013Z,6.70
2018-12-17T20:01:11.326Z,6.70
2018-12-17T20:03:45.867Z,6.70
2018-12-17T20:06:20.200Z,6.70
2018-12-17T20:08:54.588Z,6.80
2018-12-17T20:11:28.996Z,6.80
2018-12-17T20:14:03.383Z,6.80
2018-12-17T20:16:37.593Z,6.80
2018-12-17T20:19:12.052Z,6.80
2018-12-17T20:21:46.397Z,6.80
2018-12-17T20:24:21.176Z,6.70
2018-12-17T20:26:55.448Z,6.80
2018-12-17T20:29:29.737Z,6.80
2018-12-17T20:32:04.296Z,6.80
2018-12-17T20:34:39.690Z,6.70
2018-12-17T20:37:14.146Z,6.80
2018-12-17T20:39:48.510Z,6.80
2018-12-17T20:42:22.680Z,6.80
2018-12-17T20:44:57.076Z,6.80
2018-12-17T20:47:31.316Z,6.80
2018-12-17T20:50:06.869Z,6.80
2018-12-17T20:52:41.332Z,6.80
2018-12-17T20:55:15.565Z,6.80
2018-12-17T20:57:49.764Z,6.80
2018-12-17T21:00:24.204Z,6.80
2018-12-17T21:03:00.499Z,6.80
2018-12-17T21:05:34.751Z,6.80
2018-12-17T21:08:09.217Z,6.90
2018-12-17T21:10:43.561Z,6.90
2018-12-17T21:13:17.968Z,6.90
2018-12-17T21:15:52.232Z,6.90
2018-12-17T21:18:26.518Z,6.90
2018-12-17T21:21:00.792Z,6.90
2018-12-17T21:23:35.360Z,6.90
2018-12-17T21:26:09.652Z,6.90
2018-12-17T21:28:43.990Z,6.90
2018-12-17T21:31:18.233Z,6.90
2018-12-17T21:33:52.508Z,7.00
2018-12-17T21:36:26.792Z,7.00
2018-12-17T21:39:01.141Z,7.00
2018-12-17T21:41:35.422Z,7.00
2018-12-17T21:44:09.677Z,7.00
2018-12-17T21:46:44.129Z,7.00
2018-12-17T21:49:19.314Z,7.00
2018-12-17T21:51:53.688Z,7.00
2018-12-17T21:54:27.961Z,7.00
2018-12-17T21:57:02.384Z,7.00
2018-12-17T21:59:36.727Z,6.90
2018-12-17T22:02:10.903Z,7.00
2018-12-17T22:04:45.252Z,6.90
2018-12-17T22:07:19.458Z,7.00
2018-12-17T22:09:53.812Z,7.00
2018-12-17T22:12:28.144Z,6.90
2018-12-17T22:15:02.630Z,6.90
2018-12-17T22:17:37.140Z,6.90
2018-12-17T22:20:11.352Z,6.90
2018-12-17T22:22:45.683Z,6.80
2018-12-17T22:25:19.988Z,6.80
2018-12-17T22:27:54.414Z,6.80
2018-12-17T22:30:28.857Z,6.80
2018-12-17T22:33:03.296Z,6.80
2018-12-17T22:35:37.584Z,6.80
2018-12-17T22:38:11.924Z,6.70
2018-12-17T22:40:46.281Z,6.70
2018-12-17T22:43:20.658Z,6.60
2018-12-17T22:45:55.060Z,6.60
2018-12-17T22:48:29.460Z,6.60
2018-12-17T22:51:03.746Z,6.60
2018-12-17T22:53:38.122Z,6.60
2018-12-17T22:56:12.307Z,6.60
2018-12-17T22:58:46.682Z,6.60
2018-12-17T23:01:21.193Z,6.60
2018-12-17T23:03:55.388Z,6.60
2018-12-17T23:06:29.714Z,6.50
2018-12-17T23:09:05.973Z,6.50
2018-12-17T23:11:57.288Z,6.60
2018-12-17T23:14:42.885Z,6.60
2018-12-17T23:17:28.550Z,6.60
2018-12-17T23:20:02.802Z,6.60
2018-12-17T23:22:39.776Z,6.60
2018-12-17T23:25:14.149Z,6.60
2018-12-17T23:27:49.688Z,6.60
2018-12-17T23:30:24.021Z,6.60
2018-12-17T23:32:59.324Z,6.60
2018-12-17T23:35:33.616Z,6.60
2018-12-17T23:38:07.832Z,6.70
2018-12-17T23:40:42.176Z,6.70
2018-12-17T23:43:16.618Z,6.70
2018-12-17T23:45:50.984Z,6.70
2018-12-17T23:48:25.284Z,6.70
2018-12-17T23:50:59.684Z,6.80
2018-12-17T23:53:33.899Z,6.80
2018-12-17T23:56:08.273Z,6.80
2018-12-17T23:58:42.577Z,6.80
